createdAt,value
2019-02-17T00:00:29.477Z,0.00
2019-02-17T00:01:29.489Z,0.00
2019-02-17T00:02:29.553Z,0.00
2019-02-17T00:03:29.521Z,0.00
2019-02-17T00:04:29.539Z,0.00
2019-02-17T00:05:29.554Z,0.00
2019-02-17T00:06:29.569Z,0.00
2019-02-17T00:07:29.582Z,0.00
2019-02-17T00:08:29.599Z,0.00
2019-02-17T00:09:29.623Z,0.00
2019-02-17T00:10:29.636Z,0.00
2019-02-17T00:11:29.646Z,0.00
2019-02-17T00:12:29.660Z,0.00
2019-02-17T00:13:29.674Z,0.00
2019-02-17T00:14:30.093Z,0.00
2019-02-17T00:15:29.710Z,0.00
2019-02-17T00:16:29.721Z,0.00
2019-02-17T00:17:29.737Z,0.00
2019-02-17T00:18:29.754Z,0.00
2019-02-17T00:19:29.769Z,0.00
2019-02-17T00:20:29.783Z,0.00
2019-02-17T00:21:29.801Z,0.00
2019-02-17T00:22:29.818Z,0.00
2019-02-17T00:23:29.836Z,0.00
2019-02-17T00:24:29.843Z,0.00
2019-02-17T00:25:29.861Z,0.00
2019-02-17T00:26:29.882Z,0.00
2019-02-17T00:27:29.897Z,0.00
2019-02-17T00:28:29.905Z,0.00
2019-02-17T00:29:29.923Z,0.00
2019-02-17T00:30:29.941Z,0.00
2019-02-17T00:31:29.950Z,0.00
2019-02-17T00:32:29.968Z,0.00
2019-02-17T00:33:29.981Z,0.00
2019-02-17T00:34:29.998Z,0.00
2019-02-17T00:35:30.014Z,0.00
2019-02-17T00:36:30.027Z,0.00
2019-02-17T00:37:30.042Z,0.00
2019-02-17T00:38:30.057Z,0.00
2019-02-17T00:39:30.075Z,0.00
2019-02-17T00:40:30.088Z,0.00
2019-02-17T00:41:30.105Z,0.00
2019-02-17T00:42:30.118Z,0.00
2019-02-17T00:43:30.142Z,0.00
2019-02-17T00:44:30.158Z,0.00
2019-02-17T00:45:30.165Z,0.00
2019-02-17T00:46:30.183Z,0.00
2019-02-17T00:47:30.200Z,0.00
2019-02-17T00:48:30.209Z,0.00
2019-02-17T00:49:30.232Z,0.00
2019-02-17T00:50:30.242Z,0.00
2019-02-17T00:51:30.255Z,0.00
2019-02-17T00:52:30.270Z,0.00
2019-02-17T00:53:30.293Z,0.00
2019-02-17T00:54:30.305Z,0.00
2019-02-17T00:55:30.318Z,0.00
2019-02-17T00:56:30.339Z,0.00
2019-02-17T00:57:30.349Z,0.00
2019-02-17T00:58:30.370Z,0.00
2019-02-17T00:59:30.383Z,0.00
2019-02-17T01:00:30.393Z,0.00
2019-02-17T01:01:30.418Z,0.00
2019-02-17T01:02:30.427Z,0.00
2019-02-17T01:03:30.450Z,0.00
2019-02-17T01:04:30.462Z,0.00
2019-02-17T01:05:30.484Z,0.00
2019-02-17T01:06:30.486Z,0.00
2019-02-17T01:07:30.503Z,0.00
2019-02-17T01:08:30.524Z,0.00
2019-02-17T01:09:30.537Z,0.00
2019-02-17T01:10:30.546Z,0.00
2019-02-17T01:11:30.561Z,0.00
2019-02-17T01:12:30.577Z,0.00
2019-02-17T01:13:30.596Z,0.00
2019-02-17T01:14:30.609Z,0.00
2019-02-17T01:15:30.622Z,0.00
2019-02-17T01:16:30.638Z,0.00
2019-02-17T01:17:30.654Z,0.00
2019-02-17T01:18:30.667Z,0.00
2019-02-17T01:19:30.685Z,0.00
2019-02-17T01:20:30.698Z,0.00
2019-02-17T01:21:30.712Z,0.00
2019-02-17T01:22:30.730Z,0.00
2019-02-17T01:23:30.749Z,0.00
2019-02-17T01:24:30.760Z,0.00
2019-02-17T01:25:30.772Z,0.00
2019-02-17T01:26:30.792Z,0.00
2019-02-17T01:27:30.805Z,0.00
2019-02-17T01:28:30.819Z,0.00
2019-02-17T01:29:30.837Z,0.00
2019-02-17T01:30:30.850Z,0.00
2019-02-17T01:31:30.872Z,0.00
2019-02-17T01:32:30.878Z,0.00
2019-02-17T01:33:30.894Z,0.00
2019-02-17T01:34:30.909Z,0.00
2019-02-17T01:35:30.923Z,0.00
2019-02-17T01:36:30.944Z,0.00
2019-02-17T01:37:30.954Z,0.00
2019-02-17T01:38:30.976Z,0.00
2019-02-17T01:39:30.984Z,0.00
2019-02-17T01:40:31.000Z,0.00
2019-02-17T01:41:31.013Z,0.00
2019-02-17T01:42:31.029Z,0.00
2019-02-17T01:43:31.050Z,0.00
2019-02-17T01:44:31.166Z,0.00
2019-02-17T01:45:31.073Z,0.00
2019-02-17T01:46:31.087Z,0.00
2019-02-17T01:47:31.105Z,0.00
2019-02-17T01:48:31.119Z,0.00
2019-02-17T01:49:31.134Z,0.00
2019-02-17T01:50:31.155Z,0.00
2019-02-17T01:51:31.164Z,0.00
2019-02-17T01:52:31.176Z,0.00
2019-02-17T01:53:31.190Z,0.00
2019-02-17T01:54:31.207Z,0.00
2019-02-17T01:55:31.220Z,0.00
2019-02-17T01:56:31.236Z,0.00
2019-02-17T01:57:31.252Z,0.00
2019-02-17T01:58:31.267Z,0.00
2019-02-17T01:59:31.286Z,0.00
2019-02-17T02:00:31.295Z,0.00
2019-02-17T02:01:31.311Z,0.00
2019-02-17T02:02:31.325Z,0.00
2019-02-17T02:03:31.342Z,0.00
2019-02-17T02:04:31.356Z,0.00
2019-02-17T02:05:31.368Z,0.00
2019-02-17T02:06:31.385Z,0.00
2019-02-17T02:07:31.401Z,0.00
2019-02-17T02:08:31.412Z,0.00
2019-02-17T02:09:31.429Z,0.00
2019-02-17T02:10:31.444Z,0.00
2019-02-17T02:11:31.456Z,0.00
2019-02-17T02:12:31.471Z,0.00
2019-02-17T02:13:31.485Z,0.00
2019-02-17T02:14:31.507Z,0.00
2019-02-17T02:15:31.518Z,0.00
2019-02-17T02:16:31.532Z,0.00
2019-02-17T02:17:31.546Z,0.00
2019-02-17T02:18:31.560Z,0.00
2019-02-17T02:19:31.582Z,0.00
2019-02-17T02:20:31.590Z,0.00
2019-02-17T02:21:31.605Z,0.00
2019-02-17T02:22:31.619Z,0.00
2019-02-17T02:23:31.638Z,0.00
2019-02-17T02:24:31.647Z,0.00
2019-02-17T02:25:31.662Z,0.00
2019-02-17T02:26:31.676Z,0.00
2019-02-17T02:27:31.691Z,0.00
2019-02-17T02:28:31.707Z,0.00
2019-02-17T02:29:40.701Z,0.00
2019-02-17T02:30:31.739Z,0.00
2019-02-17T02:31:31.749Z,0.00
2019-02-17T02:32:31.764Z,0.00
2019-02-17T02:33:31.780Z,0.00
2019-02-17T02:34:31.802Z,0.00
2019-02-17T02:35:31.809Z,0.00
2019-02-17T02:36:31.827Z,0.00
2019-02-17T02:37:31.840Z,0.00
2019-02-17T02:38:31.861Z,0.00
2019-02-17T02:39:31.868Z,0.00
2019-02-17T02:40:31.884Z,0.00
2019-02-17T02:41:34.823Z,0.00
2019-02-17T02:42:31.919Z,0.00
2019-02-17T02:43:31.927Z,0.00
2019-02-17T02:44:31.949Z,0.00
2019-02-17T02:45:31.958Z,0.00
2019-02-17T02:46:31.969Z,0.00
2019-02-17T02:47:31.985Z,0.00
2019-02-17T02:48:32.001Z,0.00
2019-02-17T02:49:32.022Z,0.00
2019-02-17T02:50:32.029Z,0.00
2019-02-17T02:51:32.042Z,0.00
2019-02-17T02:52:32.059Z,0.00
2019-02-17T02:53:32.073Z,0.00
2019-02-17T02:54:32.085Z,0.00
2019-02-17T02:55:32.102Z,0.00
2019-02-17T02:56:32.119Z,0.00
2019-02-17T02:57:32.133Z,0.00
2019-02-17T02:58:32.144Z,0.00
2019-02-17T02:59:32.162Z,0.00
2019-02-17T03:00:32.180Z,0.00
2019-02-17T03:01:32.188Z,0.00
2019-02-17T03:02:32.203Z,0.00
2019-02-17T03:03:32.220Z,0.00
2019-02-17T03:04:32.238Z,0.00
2019-02-17T03:05:32.246Z,0.00
2019-02-17T03:06:32.263Z,0.00
2019-02-17T03:07:32.278Z,0.00
2019-02-17T03:08:32.294Z,0.00
2019-02-17T03:09:32.314Z,0.00
2019-02-17T03:10:32.326Z,0.00
2019-02-17T03:11:32.337Z,0.00
2019-02-17T03:12:32.351Z,0.00
2019-02-17T03:13:32.368Z,0.00
2019-02-17T03:14:32.381Z,0.00
2019-02-17T03:15:32.393Z,0.00
2019-02-17T03:16:32.408Z,0.00
2019-02-17T03:17:32.424Z,0.00
2019-02-17T03:18:32.446Z,0.00
2019-02-17T03:19:32.454Z,0.00
2019-02-17T03:20:32.468Z,0.00
2019-02-17T03:21:32.488Z,0.00
2019-02-17T03:22:32.499Z,0.00
2019-02-17T03:23:32.510Z,0.00
2019-02-17T03:24:32.533Z,0.00
2019-02-17T03:25:32.541Z,0.00
2019-02-17T03:26:32.556Z,0.00
2019-02-17T03:27:32.570Z,0.00
2019-02-17T03:28:32.588Z,0.00
2019-02-17T03:29:33.300Z,0.00
2019-02-17T03:30:32.615Z,0.00
2019-02-17T03:31:32.635Z,0.00
2019-02-17T03:32:32.652Z,0.00
2019-02-17T03:33:32.663Z,0.00
2019-02-17T03:34:32.671Z,0.00
2019-02-17T03:35:32.688Z,0.00
2019-02-17T03:36:32.699Z,0.00
2019-02-17T03:37:32.720Z,0.00
2019-02-17T03:38:32.731Z,0.00
2019-02-17T03:39:32.745Z,0.00
2019-02-17T03:40:32.759Z,0.00
2019-02-17T03:41:32.774Z,0.00
2019-02-17T03:42:32.787Z,0.00
2019-02-17T03:43:32.801Z,0.00
2019-02-17T03:44:32.837Z,0.00
2019-02-17T03:45:32.830Z,0.00
2019-02-17T03:46:32.848Z,0.00
2019-02-17T03:47:32.861Z,0.00
2019-02-17T03:48:32.903Z,0.00
2019-02-17T03:49:32.893Z,0.00
2019-02-17T03:50:32.902Z,0.00
2019-02-17T03:51:32.919Z,0.00
2019-02-17T03:52:32.934Z,0.00
2019-02-17T03:53:32.945Z,0.00
2019-02-17T03:54:32.961Z,0.00
2019-02-17T03:55:32.977Z,0.00
2019-02-17T03:56:32.990Z,0.00
2019-02-17T03:57:33.005Z,0.00
2019-02-17T03:58:33.021Z,0.00
2019-02-17T03:59:33.032Z,0.00
2019-02-17T04:00:33.057Z,0.00
2019-02-17T04:01:33.063Z,0.00
2019-02-17T04:02:33.082Z,0.00
2019-02-17T04:03:33.092Z,0.00
2019-02-17T04:04:33.107Z,0.00
2019-02-17T04:05:33.122Z,0.00
2019-02-17T04:06:33.136Z,0.00
2019-02-17T04:07:33.148Z,0.00
2019-02-17T04:08:33.165Z,0.00
2019-02-17T04:09:33.178Z,0.00
2019-02-17T04:10:33.192Z,0.00
2019-02-17T04:11:33.205Z,0.00
2019-02-17T04:12:33.220Z,0.00
2019-02-17T04:13:33.236Z,0.00
2019-02-17T04:14:33.250Z,0.00
2019-02-17T04:15:33.267Z,0.00
2019-02-17T04:16:33.279Z,0.00
2019-02-17T04:17:33.326Z,0.00
2019-02-17T04:18:33.306Z,0.00
2019-02-17T04:19:33.323Z,0.00
2019-02-17T04:20:33.346Z,0.00
2019-02-17T04:21:33.610Z,0.00
2019-02-17T04:22:33.366Z,0.00
2019-02-17T04:23:33.382Z,0.00
2019-02-17T04:24:33.399Z,0.00
2019-02-17T04:25:33.416Z,0.00
2019-02-17T04:26:33.421Z,0.00
2019-02-17T04:27:33.436Z,0.00
2019-02-17T04:28:33.454Z,0.00
2019-02-17T04:29:33.466Z,0.00
2019-02-17T04:30:33.482Z,0.00
2019-02-17T04:31:33.493Z,0.00
2019-02-17T04:32:33.510Z,0.00
2019-02-17T04:33:33.527Z,0.00
2019-02-17T04:34:33.536Z,0.00
2019-02-17T04:35:33.559Z,0.00
2019-02-17T04:36:33.575Z,0.00
2019-02-17T04:37:33.582Z,0.00
2019-02-17T04:38:33.597Z,0.00
2019-02-17T04:39:33.610Z,0.00
2019-02-17T04:40:33.824Z,0.00
2019-02-17T04:41:33.638Z,0.00
2019-02-17T04:42:33.653Z,0.00
2019-02-17T04:43:33.665Z,0.00
2019-02-17T04:44:33.682Z,0.00
2019-02-17T04:45:33.696Z,0.00
2019-02-17T04:46:33.709Z,0.00
2019-02-17T04:47:33.722Z,0.00
2019-02-17T04:48:33.737Z,0.00
2019-02-17T04:49:33.751Z,0.00
2019-02-17T04:50:33.765Z,0.00
2019-02-17T04:51:33.780Z,0.00
2019-02-17T04:52:33.806Z,0.00
2019-02-17T04:53:33.810Z,0.00
2019-02-17T04:54:33.823Z,0.00
2019-02-17T04:55:33.838Z,0.00
2019-02-17T04:56:33.858Z,0.00
2019-02-17T04:57:33.866Z,0.00
2019-02-17T04:58:33.893Z,0.00
2019-02-17T04:59:33.898Z,0.00
2019-02-17T05:00:40.334Z,0.00
2019-02-17T05:01:33.925Z,0.00
2019-02-17T05:02:33.939Z,0.00
2019-02-17T05:03:33.956Z,0.00
2019-02-17T05:04:33.969Z,0.00
2019-02-17T05:05:34.087Z,0.00
2019-02-17T05:06:34.005Z,0.00
2019-02-17T05:07:34.010Z,0.00
2019-02-17T05:08:34.026Z,0.00
2019-02-17T05:09:34.046Z,0.00
2019-02-17T05:10:34.054Z,0.00
2019-02-17T05:11:34.073Z,0.00
2019-02-17T05:12:34.085Z,0.00
2019-02-17T05:13:34.102Z,0.00
2019-02-17T05:14:34.110Z,0.00
2019-02-17T05:15:34.136Z,0.00
2019-02-17T05:16:34.137Z,0.00
2019-02-17T05:17:34.154Z,0.00
2019-02-17T05:18:34.164Z,0.00
2019-02-17T05:19:34.192Z,0.00
2019-02-17T05:20:34.203Z,0.00
2019-02-17T05:21:34.209Z,0.00
2019-02-17T05:22:34.223Z,0.00
2019-02-17T05:23:34.235Z,0.00
2019-02-17T05:24:34.250Z,0.00
2019-02-17T05:25:34.264Z,0.00
2019-02-17T05:26:34.278Z,0.00
2019-02-17T05:27:34.297Z,0.00
2019-02-17T05:28:34.315Z,0.00
2019-02-17T05:29:34.325Z,0.00
2019-02-17T05:30:34.335Z,0.00
2019-02-17T05:31:34.358Z,0.00
2019-02-17T05:32:34.364Z,0.00
2019-02-17T05:33:34.380Z,0.00
2019-02-17T05:34:34.390Z,0.00
2019-02-17T05:35:34.405Z,0.00
2019-02-17T05:36:34.425Z,0.00
2019-02-17T05:37:34.440Z,0.00
2019-02-17T05:38:34.447Z,0.00
2019-02-17T05:39:34.467Z,0.00
2019-02-17T05:40:36.422Z,0.00
2019-02-17T05:41:34.489Z,0.00
2019-02-17T05:42:34.503Z,0.00
2019-02-17T05:43:34.527Z,0.00
2019-02-17T05:44:34.537Z,0.00
2019-02-17T05:45:34.545Z,0.00
2019-02-17T05:46:34.569Z,0.00
2019-02-17T05:47:34.574Z,0.00
2019-02-17T05:48:34.593Z,0.00
2019-02-17T05:49:34.608Z,0.00
2019-02-17T05:50:34.615Z,0.00
2019-02-17T05:51:34.630Z,0.00
2019-02-17T05:52:34.644Z,0.00
2019-02-17T05:53:34.659Z,0.00
2019-02-17T05:54:34.675Z,0.00
2019-02-17T05:55:34.701Z,0.00
2019-02-17T05:56:34.705Z,0.00
2019-02-17T05:57:34.716Z,0.00
2019-02-17T05:58:34.730Z,0.00
2019-02-17T05:59:34.750Z,0.00
2019-02-17T06:00:34.759Z,0.00
2019-02-17T06:01:34.775Z,0.00
2019-02-17T06:02:34.791Z,0.00
2019-02-17T06:03:34.799Z,0.00
2019-02-17T06:04:34.815Z,0.00
2019-02-17T06:05:34.829Z,0.00
2019-02-17T06:06:34.842Z,0.00
2019-02-17T06:07:34.862Z,0.00
2019-02-17T06:08:34.869Z,0.00
2019-02-17T06:09:34.893Z,0.00
2019-02-17T06:10:34.899Z,0.00
2019-02-17T06:11:34.914Z,0.00
2019-02-17T06:12:34.927Z,0.00
2019-02-17T06:13:34.937Z,0.00
2019-02-17T06:14:34.955Z,0.00
2019-02-17T06:15:35.221Z,0.00
2019-02-17T06:16:34.984Z,0.00
2019-02-17T06:17:34.999Z,0.00
2019-02-17T06:18:35.015Z,0.00
2019-02-17T06:19:35.033Z,0.00
2019-02-17T06:20:35.040Z,0.00
2019-02-17T06:21:35.052Z,0.00
2019-02-17T06:22:35.074Z,0.00
2019-02-17T06:23:35.083Z,0.00
2019-02-17T06:24:35.095Z,0.00
2019-02-17T06:25:35.122Z,0.00
2019-02-17T06:26:35.125Z,0.00
2019-02-17T06:27:35.137Z,0.00
2019-02-17T06:28:35.153Z,0.00
2019-02-17T06:29:35.172Z,0.00
2019-02-17T06:30:35.179Z,0.00
2019-02-17T06:31:35.199Z,0.00
2019-02-17T06:32:35.208Z,0.00
2019-02-17T06:33:35.220Z,0.00
2019-02-17T06:34:35.241Z,0.00
2019-02-17T06:35:35.252Z,0.00
2019-02-17T06:36:35.263Z,0.00
2019-02-17T06:37:35.277Z,0.00
2019-02-17T06:38:35.297Z,0.00
2019-02-17T06:39:35.306Z,0.00
2019-02-17T06:40:35.317Z,0.00
2019-02-17T06:41:35.337Z,0.00
2019-02-17T06:42:35.351Z,0.00
2019-02-17T06:43:35.460Z,0.00
2019-02-17T06:44:35.382Z,0.00
2019-02-17T06:45:35.397Z,0.00
2019-02-17T06:46:35.413Z,0.00
2019-02-17T06:47:35.421Z,0.00
2019-02-17T06:48:35.432Z,5.63
2019-02-17T06:49:35.442Z,5.63
2019-02-17T06:50:35.465Z,5.63
2019-02-17T06:51:35.471Z,5.63
2019-02-17T06:52:35.494Z,5.63
2019-02-17T06:53:35.501Z,5.63
2019-02-17T06:54:35.511Z,5.63
2019-02-17T06:55:35.528Z,5.63
2019-02-17T06:56:35.557Z,5.63
2019-02-17T06:57:35.562Z,5.63
2019-02-17T06:58:35.576Z,11.25
2019-02-17T06:59:35.581Z,11.25
2019-02-17T07:00:35.595Z,11.25
2019-02-17T07:01:35.613Z,11.25
2019-02-17T07:02:35.631Z,11.25
2019-02-17T07:03:35.640Z,11.25
2019-02-17T07:04:35.674Z,11.25
2019-02-17T07:05:35.668Z,11.25
2019-02-17T07:06:35.687Z,11.25
2019-02-17T07:07:35.693Z,16.88
2019-02-17T07:08:35.735Z,16.88
2019-02-17T07:09:35.728Z,16.88
2019-02-17T07:10:35.734Z,16.88
2019-02-17T07:11:35.759Z,16.88
2019-02-17T07:12:35.763Z,16.88
2019-02-17T07:13:35.785Z,16.88
2019-02-17T07:14:35.798Z,16.88
2019-02-17T07:15:35.810Z,22.50
2019-02-17T07:16:35.820Z,22.50
2019-02-17T07:17:35.833Z,22.50
2019-02-17T07:18:35.846Z,22.50
2019-02-17T07:19:35.860Z,22.50
2019-02-17T07:20:35.877Z,22.50
2019-02-17T07:21:35.887Z,22.50
2019-02-17T07:22:35.910Z,28.13
2019-02-17T07:23:35.917Z,28.13
2019-02-17T07:24:35.930Z,28.13
2019-02-17T07:25:35.946Z,28.13
2019-02-17T07:26:35.958Z,28.13
2019-02-17T07:27:35.974Z,28.13
2019-02-17T07:28:35.988Z,28.13
2019-02-17T07:29:36.007Z,28.13
2019-02-17T07:30:36.013Z,33.75
2019-02-17T07:31:36.027Z,33.75
2019-02-17T07:32:36.043Z,33.75
2019-02-17T07:33:36.106Z,33.75
2019-02-17T07:34:36.071Z,33.75
2019-02-17T07:35:36.084Z,33.75
2019-02-17T07:36:36.101Z,33.75
2019-02-17T07:37:36.111Z,33.75
2019-02-17T07:38:36.124Z,33.75
2019-02-17T07:39:36.139Z,33.75
2019-02-17T07:40:36.162Z,33.75
2019-02-17T07:41:36.167Z,33.75
2019-02-17T07:42:36.245Z,39.38
2019-02-17T07:43:36.198Z,39.38
2019-02-17T07:44:36.211Z,39.38
2019-02-17T07:45:36.229Z,39.38
2019-02-17T07:46:36.239Z,39.38
2019-02-17T07:47:36.251Z,39.38
2019-02-17T07:48:36.272Z,39.38
2019-02-17T07:49:36.278Z,39.38
2019-02-17T07:50:36.302Z,39.38
2019-02-17T07:51:36.313Z,45.00
2019-02-17T07:52:36.325Z,45.00
2019-02-17T07:53:36.334Z,45.00
2019-02-17T07:54:36.357Z,45.00
2019-02-17T07:55:36.363Z,45.00
2019-02-17T07:56:36.380Z,45.00
2019-02-17T07:57:36.391Z,45.00
2019-02-17T07:58:36.407Z,50.63
2019-02-17T07:59:36.421Z,50.63
2019-02-17T08:00:36.436Z,50.63
2019-02-17T08:01:44.984Z,50.63
2019-02-17T08:02:36.461Z,50.63
2019-02-17T08:03:36.484Z,50.63
2019-02-17T08:04:36.490Z,56.25
2019-02-17T08:05:36.506Z,56.25
2019-02-17T08:06:36.524Z,56.25
2019-02-17T08:07:36.533Z,56.25
2019-02-17T08:08:36.550Z,56.25
2019-02-17T08:09:36.563Z,61.88
2019-02-17T08:10:36.576Z,61.88
2019-02-17T08:11:36.591Z,61.88
2019-02-17T08:12:36.603Z,61.88
2019-02-17T08:13:36.618Z,61.88
2019-02-17T08:14:36.636Z,61.88
2019-02-17T08:15:36.648Z,61.88
2019-02-17T08:16:36.660Z,61.88
2019-02-17T08:17:36.675Z,67.50
2019-02-17T08:18:36.690Z,67.50
2019-02-17T08:19:36.706Z,67.50
2019-02-17T08:20:36.773Z,67.50
2019-02-17T08:21:36.732Z,73.13
2019-02-17T08:22:36.745Z,73.13
2019-02-17T08:23:36.759Z,67.50
2019-02-17T08:24:36.782Z,67.50
2019-02-17T08:25:36.790Z,67.50
2019-02-17T08:26:36.807Z,67.50
2019-02-17T08:27:36.826Z,67.50
2019-02-17T08:28:36.833Z,67.50
2019-02-17T08:29:36.844Z,73.13
2019-02-17T08:30:36.861Z,73.13
2019-02-17T08:31:36.873Z,73.13
2019-02-17T08:32:36.896Z,73.13
2019-02-17T08:33:36.901Z,73.13
2019-02-17T08:34:36.918Z,73.13
2019-02-17T08:35:36.937Z,73.13
2019-02-17T08:36:36.947Z,73.13
2019-02-17T08:37:36.961Z,78.75
2019-02-17T08:38:36.974Z,78.75
2019-02-17T08:39:36.988Z,78.75
2019-02-17T08:40:37.005Z,78.75
2019-02-17T08:41:37.019Z,78.75
2019-02-17T08:42:37.031Z,78.75
2019-02-17T08:43:37.049Z,78.75
2019-02-17T08:44:37.067Z,78.75
2019-02-17T08:45:37.080Z,78.75
2019-02-17T08:46:37.090Z,78.75
2019-02-17T08:47:37.103Z,78.75
2019-02-17T08:48:37.121Z,78.75
2019-02-17T08:49:37.137Z,78.75
2019-02-17T08:50:37.149Z,78.75
2019-02-17T08:51:37.162Z,78.75
2019-02-17T08:52:37.178Z,78.75
2019-02-17T08:53:37.190Z,78.75
2019-02-17T08:54:37.209Z,78.75
2019-02-17T08:55:37.224Z,78.75
2019-02-17T08:56:37.238Z,78.75
2019-02-17T08:57:38.085Z,78.75
2019-02-17T08:58:37.270Z,78.75
2019-02-17T08:59:37.288Z,78.75
2019-02-17T09:00:37.297Z,84.38
2019-02-17T09:01:37.311Z,78.75
2019-02-17T09:02:37.324Z,78.75
2019-02-17T09:03:37.343Z,78.75
2019-02-17T09:04:37.354Z,78.75
2019-02-17T09:05:43.784Z,78.75
2019-02-17T09:06:37.384Z,78.75
2019-02-17T09:07:37.399Z,84.38
2019-02-17T09:08:37.417Z,84.38
2019-02-17T09:09:37.453Z,84.38
2019-02-17T09:10:37.601Z,84.38
2019-02-17T09:11:37.461Z,90.00
2019-02-17T09:12:37.482Z,90.00
2019-02-17T09:13:37.491Z,90.00
2019-02-17T09:14:37.511Z,84.38
2019-02-17T09:15:37.520Z,84.38
2019-02-17T09:16:37.535Z,84.38
2019-02-17T09:17:37.550Z,90.00
2019-02-17T09:18:37.569Z,90.00
2019-02-17T09:19:37.585Z,90.00
2019-02-17T09:20:37.596Z,90.00
2019-02-17T09:21:37.611Z,90.00
2019-02-17T09:22:37.629Z,90.00
2019-02-17T09:23:37.647Z,90.00
2019-02-17T09:24:37.660Z,90.00
2019-02-17T09:25:37.679Z,90.00
2019-02-17T09:26:37.688Z,90.00
2019-02-17T09:27:37.712Z,95.63
2019-02-17T09:28:37.719Z,95.63
2019-02-17T09:29:37.734Z,95.63
2019-02-17T09:30:37.750Z,95.63
2019-02-17T09:31:37.767Z,95.63
2019-02-17T09:32:37.790Z,95.63
2019-02-17T09:33:37.799Z,95.63
2019-02-17T09:34:37.816Z,95.63
2019-02-17T09:35:37.830Z,95.63
2019-02-17T09:36:37.844Z,95.63
2019-02-17T09:37:37.859Z,95.63
2019-02-17T09:38:37.884Z,95.63
2019-02-17T09:39:37.901Z,101.25
2019-02-17T09:40:37.910Z,95.63
2019-02-17T09:41:37.922Z,95.63
2019-02-17T09:42:37.941Z,95.63
2019-02-17T09:43:37.958Z,101.25
2019-02-17T09:44:37.971Z,101.25
2019-02-17T09:45:37.986Z,95.63
2019-02-17T09:46:38.005Z,95.63
2019-02-17T09:47:38.020Z,101.25
2019-02-17T09:48:38.036Z,101.25
2019-02-17T09:49:38.059Z,101.25
2019-02-17T09:50:38.066Z,101.25
2019-02-17T09:51:38.085Z,101.25
2019-02-17T09:52:38.101Z,101.25
2019-02-17T09:53:38.117Z,101.25
2019-02-17T09:54:38.134Z,101.25
2019-02-17T09:55:38.148Z,101.25
2019-02-17T09:56:38.164Z,101.25
2019-02-17T09:57:38.179Z,101.25
2019-02-17T09:58:38.199Z,95.63
2019-02-17T09:59:38.219Z,101.25
2019-02-17T10:00:38.241Z,101.25
2019-02-17T10:01:38.247Z,95.63
2019-02-17T10:02:38.265Z,95.63
2019-02-17T10:03:38.280Z,101.25
2019-02-17T10:04:38.301Z,101.25
2019-02-17T10:05:38.311Z,106.88
2019-02-17T10:06:38.335Z,106.88
2019-02-17T10:07:38.353Z,106.88
2019-02-17T10:08:38.364Z,112.50
2019-02-17T10:09:38.381Z,112.50
2019-02-17T10:10:38.397Z,112.50
2019-02-17T10:11:38.410Z,118.13
2019-02-17T10:12:38.429Z,118.13
2019-02-17T10:13:38.445Z,118.13
2019-02-17T10:14:38.460Z,123.75
2019-02-17T10:15:38.484Z,123.75
2019-02-17T10:16:38.495Z,123.75
2019-02-17T10:17:38.512Z,123.75
2019-02-17T10:18:38.527Z,123.75
2019-02-17T10:19:38.547Z,123.75
2019-02-17T10:20:38.568Z,123.75
2019-02-17T10:21:38.579Z,123.75
2019-02-17T10:22:38.594Z,123.75
2019-02-17T10:23:38.619Z,129.38
2019-02-17T10:24:38.631Z,129.38
2019-02-17T10:25:38.645Z,123.75
2019-02-17T10:26:38.664Z,129.38
2019-02-17T10:27:38.682Z,129.38
2019-02-17T10:28:42.475Z,129.38
2019-02-17T10:29:38.716Z,129.38
2019-02-17T10:30:38.804Z,129.38
2019-02-17T10:31:38.756Z,135.00
2019-02-17T10:32:39.314Z,129.38
2019-02-17T10:33:38.783Z,129.38
2019-02-17T10:34:38.805Z,135.00
2019-02-17T10:35:40.444Z,129.38
2019-02-17T10:36:38.839Z,129.38
2019-02-17T10:37:38.855Z,129.38
2019-02-17T10:38:38.874Z,129.38
2019-02-17T10:39:38.893Z,129.38
2019-02-17T10:40:38.918Z,129.38
2019-02-17T10:41:38.924Z,123.75
2019-02-17T10:42:38.944Z,123.75
2019-02-17T10:43:38.959Z,129.38
2019-02-17T10:44:38.978Z,129.38
2019-02-17T10:45:39.001Z,129.38
2019-02-17T10:46:39.020Z,123.75
2019-02-17T10:47:39.033Z,123.75
2019-02-17T10:48:39.049Z,123.75
2019-02-17T10:49:39.070Z,123.75
2019-02-17T10:50:39.086Z,123.75
2019-02-17T10:51:39.102Z,118.13
2019-02-17T10:52:39.121Z,123.75
2019-02-17T10:53:39.138Z,118.13
2019-02-17T10:54:39.163Z,118.13
2019-02-17T10:55:39.175Z,118.13
2019-02-17T10:56:39.195Z,112.50
2019-02-17T10:57:39.212Z,118.13
2019-02-17T10:58:39.231Z,118.13
2019-02-17T10:59:39.256Z,118.13
2019-02-17T11:00:39.268Z,123.75
2019-02-17T11:01:39.283Z,118.13
2019-02-17T11:02:46.701Z,118.13
2019-02-17T11:03:39.329Z,118.13
2019-02-17T11:04:39.339Z,118.13
2019-02-17T11:05:39.359Z,118.13
2019-02-17T11:06:39.382Z,118.13
2019-02-17T11:07:39.397Z,118.13
2019-02-17T11:08:39.416Z,118.13
2019-02-17T11:09:39.430Z,118.13
2019-02-17T11:10:39.449Z,118.13
2019-02-17T11:11:39.469Z,118.13
2019-02-17T11:12:39.492Z,118.13
2019-02-17T11:13:39.506Z,118.13
2019-02-17T11:14:39.530Z,118.13
2019-02-17T11:15:39.544Z,118.13
2019-02-17T11:16:39.564Z,123.75
2019-02-17T11:17:39.588Z,123.75
2019-02-17T11:18:39.599Z,123.75
2019-02-17T11:19:39.617Z,185.63
2019-02-17T11:20:39.640Z,247.50
2019-02-17T11:21:39.656Z,253.13
2019-02-17T11:22:39.672Z,258.75
2019-02-17T11:23:39.694Z,202.50
2019-02-17T11:24:39.714Z,135.00
2019-02-17T11:25:39.732Z,123.75
2019-02-17T11:26:39.751Z,123.75
2019-02-17T11:27:39.770Z,123.75
2019-02-17T11:28:39.789Z,123.75
2019-02-17T11:29:39.813Z,123.75
2019-02-17T11:30:39.832Z,123.75
2019-02-17T11:31:39.858Z,123.75
2019-02-17T11:32:39.864Z,123.75
2019-02-17T11:33:39.887Z,123.75
2019-02-17T11:34:39.905Z,118.13
2019-02-17T11:35:39.927Z,118.13
2019-02-17T11:36:39.950Z,123.75
2019-02-17T11:37:39.968Z,123.75
2019-02-17T11:38:39.982Z,123.75
2019-02-17T11:39:40.002Z,123.75
2019-02-17T11:40:40.019Z,123.75
2019-02-17T11:41:40.040Z,123.75
2019-02-17T11:42:40.063Z,123.75
2019-02-17T11:43:40.078Z,123.75
2019-02-17T11:44:40.100Z,123.75
2019-02-17T11:45:40.117Z,123.75
2019-02-17T11:46:40.141Z,151.88
2019-02-17T11:47:40.153Z,168.75
2019-02-17T11:48:40.177Z,196.88
2019-02-17T11:49:40.194Z,241.88
2019-02-17T11:50:40.215Z,253.13
2019-02-17T11:51:40.235Z,225.00
2019-02-17T11:52:40.256Z,202.50
2019-02-17T11:53:40.272Z,174.38
2019-02-17T11:54:40.293Z,163.13
2019-02-17T11:55:40.314Z,123.75
2019-02-17T11:56:40.335Z,118.13
2019-02-17T11:57:40.350Z,118.13
2019-02-17T11:58:40.379Z,112.50
2019-02-17T11:59:40.392Z,112.50
2019-02-17T12:00:40.411Z,118.13
2019-02-17T12:01:40.430Z,123.75
2019-02-17T12:02:40.459Z,123.75
2019-02-17T12:03:40.470Z,118.13
2019-02-17T12:04:40.492Z,123.75
2019-02-17T12:05:40.510Z,123.75
2019-02-17T12:06:40.531Z,123.75
2019-02-17T12:07:40.552Z,123.75
2019-02-17T12:08:40.572Z,123.75
2019-02-17T12:09:40.594Z,123.75
2019-02-17T12:10:40.612Z,123.75
2019-02-17T12:11:40.628Z,123.75
2019-02-17T12:12:40.650Z,123.75
2019-02-17T12:13:40.670Z,123.75
2019-02-17T12:14:40.692Z,118.13
2019-02-17T12:15:40.710Z,118.13
2019-02-17T12:16:40.732Z,118.13
2019-02-17T12:17:40.751Z,118.13
2019-02-17T12:18:40.781Z,118.13
2019-02-17T12:19:40.791Z,118.13
2019-02-17T12:20:40.810Z,118.13
2019-02-17T12:21:40.828Z,118.13
2019-02-17T12:22:40.857Z,118.13
2019-02-17T12:23:40.871Z,118.13
2019-02-17T12:24:40.895Z,118.13
2019-02-17T12:25:40.911Z,118.13
2019-02-17T12:26:40.933Z,118.13
2019-02-17T12:27:40.956Z,112.50
2019-02-17T12:28:40.971Z,112.50
2019-02-17T12:29:40.991Z,118.13
2019-02-17T12:30:41.017Z,118.13
2019-02-17T12:31:41.028Z,118.13
2019-02-17T12:32:41.051Z,118.13
2019-02-17T12:33:41.068Z,118.13
2019-02-17T12:34:41.090Z,118.13
2019-02-17T12:35:41.111Z,118.13
2019-02-17T12:36:41.131Z,118.13
2019-02-17T12:37:41.148Z,118.13
2019-02-17T12:38:41.171Z,118.13
2019-02-17T12:39:41.190Z,118.13
2019-02-17T12:40:41.211Z,118.13
2019-02-17T12:41:41.228Z,112.50
2019-02-17T12:42:41.256Z,112.50
2019-02-17T12:43:41.279Z,112.50
2019-02-17T12:44:41.300Z,118.13
2019-02-17T12:45:41.310Z,118.13
2019-02-17T12:46:41.337Z,118.13
2019-02-17T12:47:41.352Z,118.13
2019-02-17T12:48:41.372Z,118.13
2019-02-17T12:49:41.392Z,118.13
2019-02-17T12:50:41.412Z,118.13
2019-02-17T12:51:41.432Z,118.13
2019-02-17T12:52:47.119Z,118.13
2019-02-17T12:53:41.475Z,112.50
2019-02-17T12:54:41.495Z,112.50
2019-02-17T12:55:41.512Z,112.50
2019-02-17T12:56:41.531Z,112.50
2019-02-17T12:57:41.550Z,112.50
2019-02-17T12:58:41.573Z,112.50
2019-02-17T12:59:41.594Z,112.50